Time;durP1;ratioP1;P1;durP2;ratioP2;P2;SDS_P1;SDS_P2;PMS_P1;PMS_P2;Temp;Humidity;BMP_temperature;BMP_pressure;BME280_temperature;BME280_humidity;BME280_pressure;Samples;Min_cycle;Max_cycle;Signal;HPM_P1;HPM_P2
2023/03/17 00:01:53;;;;;;;2.42;1.60;;;2.70;1.00;;;;;;5061705;28;20029;-74
2023/03/17 00:04:21;;;;;;;6.68;1.77;;;2.60;1.00;;;;;;5057729;28;20020;-74
2023/03/17 00:06:47;;;;;;;1.98;1.20;;;2.60;1.00;;;;;;5061916;28;20039;-74
2023/03/17 00:09:15;;;;;;;2.85;1.75;;;2.60;1.00;;;;;;5057469;28;20390;-75
2023/03/17 00:11:43;;;;;;;4.10;1.50;;;2.60;1.00;;;;;;5064691;28;20057;-74
2023/03/17 00:14:09;;;;;;;2.47;1.58;;;2.70;1.00;;;;;;5061826;28;20040;-74
2023/03/17 00:16:38;;;;;;;3.78;1.50;;;2.70;1.00;;;;;;5063032;28;20032;-75
2023/03/17 00:19:05;;;;;;;3.35;0.93;;;2.70;1.00;;;;;;5061991;28;20097;-74
2023/03/17 00:28:59;;;;;;;2.45;1.60;;;2.80;1.00;;;;;;5396724;22;22070;-85
2023/03/17 00:37:15;;;;;;;3.25;1.10;;;2.70;1.00;;;;;;4972103;28;20404;-84
2023/03/17 00:39:41;;;;;;;5.05;1.75;;;2.70;1.00;;;;;;4946693;28;20054;-84
2023/03/17 00:42:09;;;;;;;4.10;1.33;;;2.70;1.00;;;;;;4974342;28;20027;-85
2023/03/17 00:44:39;;;;;;;2.28;1.10;;;2.70;1.00;;;;;;4974908;28;20035;-84
2023/03/17 00:47:06;;;;;;;3.30;1.35;;;2.70;1.00;;;;;;4971864;28;20038;-85
2023/03/17 00:49:32;;;;;;;3.50;1.35;;;2.70;1.00;;;;;;4977458;28;20034;-84
2023/03/17 00:51:59;;;;;;;2.40;1.08;;;2.70;1.00;;;;;;4973378;28;20045;-85
2023/03/17 00:54:25;;;;;;;5.15;2.42;;;2.70;1.00;;;;;;4974069;28;20046;-84
2023/03/17 00:56:51;;;;;;;3.85;1.63;;;2.70;1.00;;;;;;4974277;28;20038;-83
2023/03/17 00:59:24;;;;;;;6.03;1.83;;;2.70;1.00;;;;;;4953057;28;20523;-83
2023/03/17 01:01:51;;;;;;;2.97;1.73;;;2.60;1.00;;;;;;4972485;28;20039;-83
2023/03/17 01:04:18;;;;;;;4.55;1.77;;;2.60;1.00;;;;;;4973124;28;20039;-85
2023/03/17 01:06:46;;;;;;;3.28;1.05;;;2.60;1.00;;;;;;4956213;28;20463;-84
2023/03/17 01:09:17;;;;;;;4.20;1.67;;;2.60;1.00;;;;;;4938437;29;20043;-85
2023/03/17 01:11:43;;;;;;;3.75;1.80;;;2.60;1.00;;;;;;4953216;29;20476;-83
2023/03/17 01:14:11;;;;;;;4.10;2.30;;;2.70;1.00;;;;;;4937874;28;20456;-84
2023/03/17 01:16:38;;;;;;;18.90;2.10;;;2.60;1.00;;;;;;4973898;28;20042;-83
2023/03/17 01:19:05;;;;;;;3.80;2.25;;;2.60;1.00;;;;;;4951775;28;20041;-84
2023/03/17 01:21:32;;;;;;;5.40;2.70;;;2.60;1.00;;;;;;4970595;28;20043;-84
2023/03/17 01:23:59;;;;;;;3.95;2.15;;;2.70;1.00;;;;;;4973747;28;20042;-83
2023/03/17 01:26:25;;;;;;;4.43;2.35;;;2.70;1.00;;;;;;4972094;28;20050;-84
2023/03/17 01:28:51;;;;;;;3.28;1.85;;;2.70;1.00;;;;;;4956527;28;20030;-83
2023/03/17 01:31:18;;;;;;;3.78;2.05;;;2.70;1.00;;;;;;4972981;28;20416;-84
2023/03/17 01:33:44;;;;;;;4.93;2.20;;;2.70;1.00;;;;;;4973401;28;20027;-84
2023/03/17 01:36:11;;;;;;;5.43;2.33;;;2.80;1.00;;;;;;4972155;28;20062;-84
2023/03/17 01:38:37;;;;;;;5.82;2.30;;;2.80;1.00;;;;;;4976548;28;20365;-84
2023/03/17 01:41:03;;;;;;;5.63;2.63;;;2.70;1.00;;;;;;4973184;28;20371;-86
2023/03/17 01:43:30;;;;;;;7.03;2.80;;;2.80;1.00;;;;;;4966172;28;20045;-85
2023/03/17 01:46:19;;;;;;;6.55;3.40;;;2.80;1.00;;;;;;4972107;28;20054;-85
2023/03/17 01:48:57;;;;;;;8.95;3.90;;;2.80;1.00;;;;;;4973284;28;20035;-84
2023/03/17 01:51:36;;;;;;;7.15;3.72;;;2.70;1.00;;;;;;4972976;28;20035;-85
2023/03/17 01:54:08;;;;;;;6.15;3.28;;;2.70;1.00;;;;;;4971188;28;20371;-86
2023/03/17 01:56:35;;;;;;;;;;;2.70;1.00;;;;;;4956757;28;20053;-84
2023/03/17 01:59:06;;;;;;;5.40;3.38;;;2.60;1.00;;;;;;4970934;28;19906;-85
2023/03/17 02:01:36;;;;;;;;;;;2.60;1.00;;;;;;4955803;28;20043;-84
2023/03/17 02:04:04;;;;;;;5.35;2.72;;;2.60;1.00;;;;;;4971649;28;19910;-86
2023/03/17 02:06:30;;;;;;;6.88;2.88;;;2.60;1.00;;;;;;4972720;28;20042;-84
2023/03/17 02:08:58;;;;;;;6.80;3.58;;;2.50;1.00;;;;;;4973362;28;20027;-84
2023/03/17 02:11:25;;;;;;;5.63;3.20;;;2.60;1.00;;;;;;4972984;28;20023;-84
2023/03/17 02:13:52;;;;;;;6.88;3.53;;;2.60;1.00;;;;;;4952781;28;20031;-84
2023/03/17 02:16:21;;;;;;;5.75;3.05;;;2.50;1.00;;;;;;4967623;28;20039;-84
2023/03/17 02:18:47;;;;;;;5.18;3.25;;;2.60;1.00;;;;;;4977151;28;20037;-84
2023/03/17 02:21:26;;;;;;;6.85;3.03;;;2.50;1.00;;;;;;4980041;28;20110;-85
2023/03/17 02:23:54;;;;;;;9.05;4.40;;;2.50;1.00;;;;;;4959236;28;20047;-84
2023/03/17 02:26:23;;;;;;;6.88;3.30;;;2.50;1.00;;;;;;4976372;28;20039;-84
2023/03/17 02:28:49;;;;;;;5.18;3.22;;;2.50;1.00;;;;;;4965610;28;20031;-86
2023/03/17 02:31:17;;;;;;;7.53;3.78;;;2.50;1.00;;;;;;4971267;28;20055;-85
2023/03/17 02:33:43;;;;;;;7.07;3.60;;;2.50;1.00;;;;;;4973076;28;20054;-84
2023/03/17 02:36:09;;;;;;;7.35;3.38;;;2.40;1.00;;;;;;4968708;28;20086;-85
2023/03/17 02:38:36;;;;;;;7.75;3.78;;;2.40;1.00;;;;;;4958644;28;20035;-84
2023/03/17 02:41:02;;;;;;;5.03;2.70;;;2.30;1.00;;;;;;4975149;28;20050;-85
2023/03/17 02:43:29;;;;;;;4.88;2.65;;;2.30;1.00;;;;;;4971627;28;20043;-85
2023/03/17 02:45:55;;;;;;;5.68;3.50;;;2.20;1.00;;;;;;4974914;28;20039;-85
2023/03/17 02:48:22;;;;;;;5.45;2.83;;;2.20;1.00;;;;;;4939295;29;20043;-83
2023/03/17 02:50:48;;;;;;;6.22;3.28;;;2.10;1.90;;;;;;4939493;29;20055;-84
2023/03/17 02:53:14;;;;;;;6.18;2.92;;;2.10;3.70;;;;;;4967140;28;20045;-83
2023/03/17 02:55:40;;;;;;;5.32;2.35;;;2.00;7.60;;;;;;4974944;28;20043;-83
2023/03/17 02:58:07;;;;;;;4.90;3.33;;;2.00;9.90;;;;;;4974486;28;20042;-86
2023/03/17 03:00:33;;;;;;;6.57;3.40;;;2.00;12.00;;;;;;4958966;28;20031;-83
2023/03/17 03:03:00;;;;;;;6.68;3.47;;;1.90;12.40;;;;;;4975823;28;20039;-82
2023/03/17 03:05:27;;;;;;;8.30;4.38;;;1.80;14.40;;;;;;4974848;28;20034;-86
2023/03/17 03:07:53;;;;;;;8.73;4.45;;;1.80;16.70;;;;;;4974433;28;20039;-83
2023/03/17 03:10:20;;;;;;;7.75;4.97;;;1.80;17.50;;;;;;4975050;28;20384;-84
2023/03/17 03:12:46;;;;;;;9.15;4.95;;;1.70;18.80;;;;;;4975640;28;20407;-84
2023/03/17 03:15:13;;;;;;;7.57;4.70;;;1.70;22.70;;;;;;4972594;28;20030;-83
2023/03/17 03:17:39;;;;;;;8.50;4.28;;;1.70;23.20;;;;;;4958416;28;20038;-84
2023/03/17 03:20:06;;;;;;;12.38;6.18;;;1.60;24.90;;;;;;4975556;28;20050;-85
2023/03/17 03:22:32;;;;;;;12.30;7.88;;;1.50;26.20;;;;;;4951110;29;20043;-84
2023/03/17 03:24:58;;;;;;;7.85;4.82;;;1.50;27.70;;;;;;4956838;28;20050;-84
2023/03/17 03:27:24;;;;;;;8.70;4.82;;;1.40;30.00;;;;;;4974831;28;20035;-83
2023/03/17 03:29:50;;;;;;;6.25;4.88;;;1.40;33.20;;;;;;4927777;28;20399;-83
2023/03/17 03:32:16;;;;;;;9.48;4.28;;;1.40;32.60;;;;;;4974793;28;20034;-84
2023/03/17 03:34:42;;;;;;;10.80;4.30;;;1.40;34.20;;;;;;4957935;28;20062;-84
2023/03/17 03:37:09;;;;;;;7.78;5.47;;;1.40;35.80;;;;;;4975379;28;20399;-84
2023/03/17 03:39:36;;;;;;;9.30;5.45;;;1.30;36.10;;;;;;4975414;28;20039;-85
2023/03/17 03:42:02;;;;;;;8.68;4.72;;;1.20;40.10;;;;;;4974074;28;20039;-83
2023/03/17 03:44:29;;;;;;;10.70;5.15;;;1.20;40.30;;;;;;4974723;28;20034;-83
2023/03/17 03:46:55;;;;;;;6.75;4.28;;;1.10;40.80;;;;;;4976108;28;20047;-84
2023/03/17 03:49:21;;;;;;;7.63;4.43;;;1.10;41.80;;;;;;4957378;28;20043;-84
2023/03/17 03:51:47;;;;;;;9.07;4.15;;;1.10;44.60;;;;;;4957595;28;20030;-84
2023/03/17 03:54:13;;;;;;;9.80;4.75;;;1.00;43.50;;;;;;4974027;28;20031;-85
2023/03/17 03:56:39;;;;;;;8.30;4.50;;;0.90;46.70;;;;;;4957760;28;20041;-85
2023/03/17 03:59:06;;;;;;;10.98;5.45;;;1.00;51.30;;;;;;4975212;28;20035;-84
2023/03/17 04:01:32;;;;;;;7.05;4.43;;;0.90;50.90;;;;;;4957361;28;20050;-84
2023/03/17 04:03:58;;;;;;;9.20;4.93;;;0.80;54.00;;;;;;4975544;28;20139;-84
2023/03/17 04:06:24;;;;;;;7.70;5.05;;;0.80;58.10;;;;;;4975335;28;20375;-84
2023/03/17 04:08:51;;;;;;;7.72;4.43;;;0.80;60.00;;;;;;4975315;28;20387;-84
2023/03/17 04:11:17;;;;;;;10.95;5.78;;;0.70;63.20;;;;;;4957297;28;20407;-84
2023/03/17 04:13:43;;;;;;;8.10;5.03;;;0.70;69.40;;;;;;4941591;28;20043;-83
2023/03/17 04:16:09;;;;;;;12.07;6.32;;;0.70;72.10;;;;;;4974623;28;20039;-85
2023/03/17 04:18:36;;;;;;;12.75;5.40;;;0.70;70.40;;;;;;4974700;28;20479;-84
2023/03/17 04:21:02;;;;;;;11.52;5.63;;;0.60;67.10;;;;;;4957518;28;20046;-84
2023/03/17 04:23:30;;;;;;;9.93;6.20;;;0.60;63.40;;;;;;4957092;28;20468;-84
2023/03/17 04:25:57;;;;;;;9.38;5.25;;;0.50;70.10;;;;;;4956459;28;20039;-84
2023/03/17 04:28:23;;;;;;;10.70;5.88;;;0.50;71.00;;;;;;4973416;28;20039;-85
2023/03/17 04:30:49;;;;;;;10.88;5.43;;;0.40;75.80;;;;;;4976725;28;20047;-83
2023/03/17 04:33:16;;;;;;;10.52;6.22;;;0.40;79.30;;;;;;4961750;28;20047;-84
2023/03/17 04:35:42;;;;;;;9.73;5.25;;;0.40;80.40;;;;;;4980130;28;20439;-84
2023/03/17 04:38:11;;;;;;;9.70;5.63;;;0.40;82.50;;;;;;4972156;28;20383;-84
2023/03/17 04:40:38;;;;;;;9.50;5.30;;;0.40;85.60;;;;;;4972471;28;20042;-84
2023/03/17 04:43:05;;;;;;;13.30;6.63;;;0.30;86.40;;;;;;4976080;28;20384;-84
2023/03/17 04:45:31;;;;;;;10.23;5.25;;;0.40;89.20;;;;;;4973231;28;20518;-83
2023/03/17 04:47:57;;;;;;;12.85;6.97;;;0.30;88.10;;;;;;4974146;28;20388;-84
2023/03/17 04:50:23;;;;;;;8.85;6.10;;;0.30;87.10;;;;;;4931694;28;20032;-84
2023/03/17 04:52:50;;;;;;;11.60;7.63;;;0.20;88.10;;;;;;4970270;28;20473;-83
2023/03/17 04:55:16;;;;;;;16.95;8.95;;;0.20;90.70;;;;;;4968774;28;20085;-83
2023/03/17 04:57:42;;;;;;;12.88;8.43;;;0.20;91.80;;;;;;4974020;28;20038;-83
2023/03/17 05:00:11;;;;;;;12.25;7.32;;;0.20;93.70;;;;;;4974067;28;20575;-83
2023/03/17 05:02:37;;;;;;;10.38;6.22;;;0.10;93.80;;;;;;4952634;28;20039;-83
2023/03/17 05:05:04;;;;;;;10.52;6.22;;;0.10;95.10;;;;;;4957034;28;20035;-82
2023/03/17 05:07:30;;;;;;;12.35;6.22;;;0.10;96.50;;;;;;4965114;28;20053;-84
2023/03/17 05:09:56;;;;;;;12.68;7.38;;;0.10;97.20;;;;;;4953823;28;20046;-83
2023/03/17 05:12:23;;;;;;;13.75;7.35;;;0.10;98.40;;;;;;4974005;28;20042;-83
2023/03/17 05:14:49;;;;;;;17.70;8.38;;;0.10;98.60;;;;;;4974488;28;20132;-85
2023/03/17 05:17:15;;;;;;;13.05;6.93;;;0.10;97.60;;;;;;4956819;28;20040;-83
2023/03/17 05:19:41;;;;;;;13.85;8.68;;;0.00;95.60;;;;;;4972832;28;20035;-82
2023/03/17 05:22:08;;;;;;;13.90;8.23;;;0.00;95.70;;;;;;4972095;28;20115;-82
2023/03/17 05:24:34;;;;;;;15.77;9.25;;;0.00;95.20;;;;;;4973141;28;20198;-80
2023/03/17 05:27:00;;;;;;;21.67;8.55;;;-0.10;95.20;;;;;;4973102;28;20034;-80
2023/03/17 05:29:26;;;;;;;14.38;8.15;;;-0.10;95.80;;;;;;4955172;28;20062;-81
2023/03/17 05:31:52;;;;;;;14.52;8.43;;;-0.10;98.50;;;;;;4972752;28;20030;-81
2023/03/17 05:34:19;;;;;;;13.85;7.25;;;-0.20;99.90;;;;;;4972733;28;20039;-81
2023/03/17 05:36:45;;;;;;;11.93;6.72;;;-0.20;99.90;;;;;;4943163;28;1076059;-81
2023/03/17 05:39:11;;;;;;;11.95;7.07;;;-0.20;99.90;;;;;;4974886;28;20042;-80
2023/03/17 05:41:37;;;;;;;20.67;10.57;;;-0.20;99.90;;;;;;4974408;28;20041;-81
2023/03/17 05:44:04;;;;;;;14.13;7.18;;;-0.20;99.90;;;;;;4973985;28;20030;-85
2023/03/17 05:46:30;;;;;;;13.82;7.65;;;-0.20;99.90;;;;;;4956272;28;20399;-86
2023/03/17 05:48:56;;;;;;;13.73;7.55;;;-0.20;99.90;;;;;;4972450;28;20034;-86
2023/03/17 05:51:23;;;;;;;15.40;7.50;;;-0.20;99.90;;;;;;4959514;28;20043;-86
2023/03/17 05:53:49;;;;;;;15.05;8.20;;;-0.10;99.90;;;;;;4943326;29;20480;-84
2023/03/17 05:56:16;;;;;;;19.60;7.90;;;-0.10;99.90;;;;;;4966873;28;20034;-85
2023/03/17 05:58:42;;;;;;;14.43;8.20;;;-0.10;99.90;;;;;;4966567;28;20039;-83
2023/03/17 06:01:08;;;;;;;14.77;8.00;;;-0.10;99.90;;;;;;4967840;28;20039;-83
2023/03/17 06:03:37;;;;;;;15.75;8.38;;;-0.10;99.90;;;;;;4969918;28;20042;-84
2023/03/17 06:06:04;;;;;;;15.88;7.80;;;-0.10;99.90;;;;;;4964585;28;20487;-83
2023/03/17 06:08:31;;;;;;;17.60;9.35;;;-0.10;99.90;;;;;;4957616;28;20502;-86
2023/03/17 06:10:57;;;;;;;14.88;8.27;;;0.00;99.90;;;;;;4973583;28;20040;-86
2023/03/17 06:13:24;;;;;;;16.55;8.63;;;0.00;99.90;;;;;;4971121;28;20049;-86
2023/03/17 06:15:51;;;;;;;14.63;8.35;;;0.10;99.90;;;;;;4956081;28;20494;-84
2023/03/17 06:18:23;;;;;;;23.37;10.40;;;0.20;99.90;;;;;;4967497;28;20053;-86
2023/03/17 06:20:50;;;;;;;18.27;11.77;;;0.30;99.90;;;;;;4974091;28;20274;-84
2023/03/17 06:23:17;;;;;;;19.73;11.55;;;0.40;99.90;;;;;;4969056;28;20042;-89
2023/03/17 06:25:44;;;;;;;26.33;12.85;;;0.60;99.90;;;;;;4965578;28;20039;-85
2023/03/17 06:28:10;;;;;;;22.33;15.15;;;0.80;99.90;;;;;;4972879;28;20022;-85
2023/03/17 06:30:37;;;;;;;23.08;17.65;;;1.20;99.90;;;;;;4976265;28;20573;-85
2023/03/17 06:33:04;;;;;;;20.95;16.27;;;1.70;97.30;;;;;;4968523;28;20059;-86
2023/03/17 06:35:31;;;;;;;20.42;15.88;;;2.00;54.20;;;;;;4968896;28;20050;-85
2023/03/17 06:37:58;;;;;;;21.25;15.90;;;2.20;23.60;;;;;;4958509;28;20038;-86
2023/03/17 06:40:24;;;;;;;16.10;12.65;;;2.40;8.80;;;;;;4965886;28;20042;-87
2023/03/17 06:42:52;;;;;;;14.10;11.20;;;2.70;1.00;;;;;;4974565;28;20474;-86
2023/03/17 06:45:18;;;;;;;15.40;11.32;;;2.80;1.00;;;;;;4972194;28;20396;-87
2023/03/17 06:47:44;;;;;;;14.25;10.85;;;3.20;1.00;;;;;;4960476;28;20387;-86
2023/03/17 06:50:11;;;;;;;12.57;10.77;;;3.40;1.00;;;;;;4975487;28;20034;-87
2023/03/17 06:52:38;;;;;;;13.65;9.48;;;3.90;1.00;;;;;;4974820;28;20042;-87
2023/03/17 06:55:07;;;;;;;10.68;8.63;;;4.50;1.00;;;;;;4959063;28;20038;-87
2023/03/17 06:57:35;;;;;;;11.73;9.65;;;5.10;1.00;;;;;;4974029;28;20062;-86
2023/03/17 07:00:03;;;;;;;11.80;8.43;;;5.40;1.00;;;;;;4969263;28;20062;-87
2023/03/17 07:02:30;;;;;;;10.35;8.88;;;5.50;1.00;;;;;;4971182;28;20476;-87
2023/03/17 07:04:57;;;;;;;8.95;7.07;;;5.60;1.00;;;;;;4971928;28;20031;-87
2023/03/17 07:07:23;;;;;;;8.57;6.63;;;6.00;1.00;;;;;;4958233;28;20047;-87
2023/03/17 07:09:51;;;;;;;12.00;6.75;;;6.20;1.00;;;;;;4957268;28;20047;-87
2023/03/17 07:12:17;;;;;;;9.90;5.07;;;6.40;1.00;;;;;;4970251;28;20039;-87
2023/03/17 07:14:44;;;;;;;9.70;6.20;;;6.60;1.00;;;;;;4965797;28;20035;-87
2023/03/17 07:17:11;;;;;;;9.27;5.13;;;6.80;1.00;;;;;;4964218;28;20037;-87
2023/03/17 07:19:38;;;;;;;8.68;6.10;;;7.10;1.00;;;;;;4957634;28;20506;-88
2023/03/17 07:22:04;;;;;;;8.35;5.88;;;7.30;1.00;;;;;;4938359;28;20038;-87
2023/03/17 07:24:30;;;;;;;6.20;5.10;;;7.50;1.00;;;;;;4960442;28;20054;-88
2023/03/17 07:26:59;;;;;;;7.60;5.30;;;7.60;99.90;;;;;;4949054;28;20050;-87
2023/03/17 07:29:27;;;;;;;8.25;5.15;;;7.90;99.90;;;;;;4961455;28;20460;-87
2023/03/17 07:31:54;;;;;;;12.30;5.22;;;7.90;99.90;;;;;;4957860;28;20054;-88
2023/03/17 07:34:21;;;;;;;9.45;5.45;;;7.70;99.90;;;;;;4969526;28;20039;-89
2023/03/17 07:36:47;;;;;;;10.85;5.18;;;7.50;99.90;;;;;;4965610;28;20047;-88
2023/03/17 07:39:13;;;;;;;7.13;4.53;;;7.50;99.90;;;;;;4978139;28;20041;-87
2023/03/17 07:41:42;;;;;;;6.57;4.40;;;7.20;99.90;;;;;;4966970;28;20371;-88
2023/03/17 07:44:10;;;;;;;7.28;5.05;;;7.10;1.00;;;;;;4959895;28;20051;-87
2023/03/17 07:46:37;;;;;;;8.32;5.18;;;7.00;1.00;;;;;;4994002;28;20023;-87
2023/03/17 07:49:03;;;;;;;7.90;5.30;;;6.90;1.00;;;;;;4992071;28;20041;-87
2023/03/17 07:51:33;;;;;;;7.28;5.32;;;6.80;1.00;;;;;;4959002;28;20047;-86
2023/03/17 07:54:02;;;;;;;7.70;4.50;;;6.80;1.00;;;;;;4971338;28;20047;-88
2023/03/17 07:56:31;;;;;;;7.63;5.30;;;6.90;1.00;;;;;;4956506;28;20035;-87
2023/03/17 07:58:59;;;;;;;7.53;4.82;;;7.20;1.00;;;;;;4957692;28;20043;-87
2023/03/17 08:01:26;;;;;;;8.20;4.63;;;7.30;1.00;;;;;;4974335;28;20356;-88
2023/03/17 08:03:55;;;;;;;5.38;4.25;;;7.40;99.90;;;;;;4957880;28;20039;-87
2023/03/17 08:06:30;;;;;;;8.13;5.07;;;7.60;1.00;;;;;;4960702;28;20047;-87
2023/03/17 08:08:56;;;;;;;8.57;4.90;;;7.90;99.90;;;;;;4963409;28;20046;-87
2023/03/17 08:11:22;;;;;;;12.45;5.07;;;8.00;99.90;;;;;;4959027;28;20471;-87
2023/03/17 08:13:49;;;;;;;7.70;5.03;;;8.30;99.90;;;;;;4974479;28;20042;-88
2023/03/17 08:16:16;;;;;;;7.97;5.53;;;8.60;99.90;;;;;;4976980;28;20471;-89
2023/03/17 08:18:44;;;;;;;7.88;5.93;;;9.10;99.90;;;;;;4945235;29;20042;-88
2023/03/17 08:21:13;;;;;;;8.25;5.47;;;9.40;99.90;;;;;;4968572;28;20487;-88
2023/03/17 08:23:42;;;;;;;8.40;5.55;;;9.80;99.90;;;;;;4969404;28;20043;-90
2023/03/17 08:26:14;;;;;;;7.18;4.90;;;10.20;99.90;;;;;;4969806;28;20368;-88
2023/03/17 08:28:41;;;;;;;11.65;6.32;;;10.50;99.90;;;;;;4972339;28;20065;-90
2023/03/17 08:31:12;;;;;;;11.05;5.72;;;10.20;99.90;;;;;;4951412;28;20039;-89
2023/03/17 08:33:40;;;;;;;10.90;6.15;;;9.90;99.90;;;;;;4964939;28;20050;-88
2023/03/17 08:36:08;;;;;;;7.70;5.25;;;10.40;99.90;;;;;;4965826;28;20051;-89
2023/03/17 08:38:39;;;;;;;11.32;6.20;;;10.90;99.90;;;;;;4950878;28;20039;-88
2023/03/17 08:41:06;;;;;;;;;;;11.30;99.90;;;;;;4968476;28;20031;-89
2023/03/17 08:43:35;;;;;;;8.50;5.82;;;11.30;99.90;;;;;;4948507;28;19917;-88
2023/03/17 08:46:19;;;;;;;11.57;6.38;;;11.70;99.90;;;;;;4957954;28;20057;-86
2023/03/17 08:48:47;;;;;;;10.40;5.47;;;11.90;99.90;;;;;;4968698;28;20027;-88
2023/03/17 08:51:13;;;;;;;10.98;5.85;;;12.20;99.90;;;;;;4970370;28;20030;-89
2023/03/17 08:53:40;;;;;;;8.38;5.53;;;12.10;99.90;;;;;;4971858;28;20034;-87
2023/03/17 08:56:07;;;;;;;7.55;4.88;;;12.00;99.90;;;;;;4982191;28;20051;-86
2023/03/17 08:58:36;;;;;;;9.20;6.07;;;12.10;99.90;;;;;;4968000;28;20041;-85
2023/03/17 09:01:03;;;;;;;9.18;5.38;;;12.10;99.90;;;;;;4966966;28;20042;-87
2023/03/17 09:03:32;;;;;;;11.23;5.78;;;11.90;99.90;;;;;;4950763;28;20679;-86
2023/03/17 09:05:59;;;;;;;6.78;4.72;;;12.10;99.90;;;;;;4965687;28;20047;-85
2023/03/17 09:08:26;;;;;;;6.72;4.57;;;12.40;99.90;;;;;;4961452;28;20112;-87
2023/03/17 09:10:53;;;;;;;6.38;4.07;;;12.80;99.90;;;;;;4966654;28;20038;-88
2023/03/17 09:13:20;;;;;;;7.57;4.82;;;13.00;99.90;;;;;;4970317;28;20101;-87
2023/03/17 09:15:47;;;;;;;9.40;4.50;;;13.00;99.90;;;;;;4965137;28;20046;-86
2023/03/17 09:18:14;;;;;;;8.30;4.85;;;13.20;99.90;;;;;;4951950;28;20042;-87
2023/03/17 09:20:40;;;;;;;5.63;3.75;;;13.50;99.90;;;;;;4965384;28;20058;-89
2023/03/17 09:23:08;;;;;;;6.47;4.38;;;13.60;99.90;;;;;;4970479;28;20043;-86
2023/03/17 09:25:36;;;;;;;11.80;5.18;;;13.30;99.90;;;;;;4950333;28;20047;-88
2023/03/17 09:28:03;;;;;;;6.50;4.18;;;12.90;99.90;;;;;;4969249;28;20042;-85
2023/03/17 09:30:31;;;;;;;7.90;4.45;;;13.20;99.90;;;;;;4963512;28;20043;-90
2023/03/17 09:32:59;;;;;;;9.35;4.75;;;13.50;99.90;;;;;;4953378;28;20050;-89
2023/03/17 09:35:30;;;;;;;6.65;4.18;;;13.50;99.90;;;;;;4949015;28;20050;-89
2023/03/17 09:38:01;;;;;;;6.70;4.47;;;13.60;99.90;;;;;;4969528;28;20039;-89
2023/03/17 09:40:45;;;;;;;6.35;3.90;;;13.80;99.90;;;;;;4946018;28;20047;-89
2023/03/17 09:43:21;;;;;;;6.95;4.13;;;13.50;99.90;;;;;;4966155;28;20030;-87
2023/03/17 09:45:53;;;;;;;5.07;3.22;;;13.40;99.90;;;;;;4960764;28;20423;-89
2023/03/17 09:48:53;;;;;;;8.37;4.07;;;13.70;99.90;;;;;;4957034;28;20038;-90
2023/03/17 09:51:20;;;;;;;6.32;4.03;;;14.10;99.90;;;;;;4967725;28;20046;-88
2023/03/17 09:53:53;;;;;;;7.65;3.53;;;14.30;99.90;;;;;;4989411;28;20027;-85
2023/03/17 09:56:21;;;;;;;5.75;3.15;;;14.20;99.90;;;;;;4969283;28;20034;-84
2023/03/17 09:58:57;;;;;;;5.97;3.30;;;14.60;99.90;;;;;;4979177;28;20066;-85
2023/03/17 10:01:24;;;;;;;5.38;2.92;;;14.50;99.90;;;;;;4957842;28;20046;-81
2023/03/17 10:03:51;;;;;;;7.68;3.10;;;14.50;99.90;;;;;;4965541;28;20058;-81
2023/03/17 10:06:34;;;;;;;5.80;3.00;;;14.50;99.90;;;;;;4970533;28;20054;-79
2023/03/17 10:09:26;;;;;;;4.93;2.80;;;14.50;99.90;;;;;;4960479;28;20023;-81
2023/03/17 10:12:23;;;;;;;5.85;3.13;;;14.50;99.90;;;;;;4955191;28;20050;-82
2023/03/17 10:15:13;;;;;;;5.55;3.00;;;14.60;99.90;;;;;;4945372;28;20140;-83
2023/03/17 10:17:41;;;;;;;4.47;2.95;;;14.70;99.90;;;;;;4947210;28;20062;-86
2023/03/17 10:20:13;;;;;;;4.07;2.80;;;14.80;99.90;;;;;;4969414;28;20034;-84
2023/03/17 10:22:42;;;;;;;7.53;3.17;;;14.90;99.90;;;;;;4968981;28;20045;-85
2023/03/17 10:25:15;;;;;;;6.05;3.45;;;15.00;99.90;;;;;;4965618;28;20034;-83
2023/03/17 10:27:45;;;;;;;6.45;3.00;;;14.90;99.90;;;;;;4961625;28;20043;-81
2023/03/17 10:30:17;;;;;;;6.50;2.83;;;14.90;99.90;;;;;;4959300;28;20039;-81
2023/03/17 10:32:44;;;;;;;5.20;2.75;;;14.80;99.90;;;;;;4953740;28;20042;-81
2023/03/17 10:35:11;;;;;;;5.43;2.80;;;15.00;99.90;;;;;;4944902;28;20042;-84
2023/03/17 10:37:38;;;;;;;4.65;2.97;;;15.20;99.90;;;;;;4968273;28;20069;-85
2023/03/17 10:40:09;;;;;;;8.48;3.25;;;15.40;99.90;;;;;;4966496;28;20038;-81
2023/03/17 10:42:46;;;;;;;4.18;2.38;;;15.70;99.90;;;;;;4954737;28;20050;-83
2023/03/17 10:45:28;;;;;;;6.93;2.58;;;15.60;99.90;;;;;;4950190;28;20476;-83
2023/03/17 10:47:57;;;;;;;4.53;2.95;;;15.60;99.90;;;;;;4967525;28;20054;-82
2023/03/17 10:50:36;;;;;;;5.70;2.85;;;15.50;99.90;;;;;;4955204;28;20476;-82
2023/03/17 10:53:02;;;;;;;4.60;2.95;;;15.30;99.90;;;;;;4963437;28;20046;-86
2023/03/17 10:55:37;;;;;;;5.30;3.20;;;15.20;99.90;;;;;;4953411;28;20039;-87
2023/03/17 10:58:29;;;;;;;5.55;2.45;;;15.30;99.90;;;;;;4953157;28;20053;-81
2023/03/17 11:01:04;;;;;;;5.32;2.55;;;15.40;99.90;;;;;;4969420;28;20031;-84
2023/03/17 11:03:34;;;;;;;5.15;3.28;;;15.50;99.90;;;;;;4971619;28;20033;-85
2023/03/17 11:06:07;;;;;;;6.65;2.55;;;15.80;99.90;;;;;;4940701;28;20480;-85
2023/03/17 11:08:40;;;;;;;7.00;2.67;;;16.20;99.90;;;;;;4957709;28;20039;-86
2023/03/17 11:11:23;;;;;;;5.30;2.40;;;16.30;99.90;;;;;;4976672;28;20385;-86
2023/03/17 11:13:49;;;;;;;6.15;3.30;;;16.40;99.90;;;;;;4956945;28;20038;-86
2023/03/17 11:16:23;;;;;;;4.20;2.67;;;16.40;99.90;;;;;;4967748;28;20039;-87
2023/03/17 11:18:56;;;;;;;5.35;2.60;;;16.40;99.90;;;;;;4956963;28;20042;-86
2023/03/17 11:21:45;;;;;;;7.13;2.55;;;16.40;99.90;;;;;;4970084;28;20464;-86
2023/03/17 11:24:20;;;;;;;7.05;2.80;;;16.40;99.90;;;;;;4970107;28;20472;-83
2023/03/17 11:26:57;;;;;;;5.07;2.40;;;16.50;99.90;;;;;;4974402;28;20049;-85
2023/03/17 11:29:43;;;;;;;6.20;3.17;;;16.40;99.90;;;;;;4973177;28;20031;-85
2023/03/17 11:32:31;;;;;;;4.18;2.38;;;16.50;99.90;;;;;;4967339;28;20034;-85
2023/03/17 11:35:20;;;;;;;5.03;2.97;;;16.60;99.90;;;;;;4970382;28;20027;-80
2023/03/17 11:38:04;;;;;;;6.55;3.25;;;16.70;99.90;;;;;;4958620;28;20058;-83
2023/03/17 11:40:42;;;;;;;5.53;2.63;;;16.70;99.90;;;;;;4969512;28;20035;-83
2023/03/17 11:43:51;;;;;;;4.07;2.60;;;16.60;99.90;;;;;;4937039;28;20043;-85
2023/03/17 11:46:26;;;;;;;6.47;3.13;;;16.50;99.90;;;;;;4973816;28;20050;-84
2023/03/17 11:49:17;;;;;;;6.32;3.78;;;16.50;99.90;;;;;;4968703;28;20440;-86
2023/03/17 11:52:18;;;;;;;5.05;2.90;;;16.50;99.90;;;;;;4972274;28;20039;-84
2023/03/17 11:55:05;;;;;;;;;;;16.40;99.90;;;;;;4952856;28;20050;-82
2023/03/17 11:57:45;;;;;;;6.90;3.53;;;16.40;99.90;;;;;;4961392;28;19918;-81
2023/03/17 12:00:22;;;;;;;;;;;16.40;99.90;;;;;;4962406;28;20027;-81
2023/03/17 12:03:24;;;;;;;5.97;3.38;;;16.50;99.90;;;;;;4951268;28;19918;-82
2023/03/17 12:05:55;;;;;;;7.03;3.17;;;16.50;99.90;;;;;;4958834;28;20039;-82
2023/03/17 12:08:49;;;;;;;5.53;3.28;;;16.50;99.90;;;;;;4978856;28;20046;-82
2023/03/17 12:11:27;;;;;;;6.90;3.42;;;16.60;99.90;;;;;;4984497;28;20031;-82
2023/03/17 12:14:05;;;;;;;4.68;2.63;;;16.50;99.90;;;;;;4967053;28;20039;-83
2023/03/17 12:16:51;;;;;;;4.90;3.10;;;16.60;99.90;;;;;;4971086;28;20053;-85
2023/03/17 12:19:21;;;;;;;7.72;3.20;;;16.50;99.90;;;;;;4969973;28;20046;-85
2023/03/17 12:21:54;;;;;;;4.63;2.35;;;16.50;99.90;;;;;;4949024;28;20392;-85
2023/03/17 12:24:31;;;;;;;5.47;2.80;;;16.70;99.90;;;;;;4966891;28;20027;-86
2023/03/17 12:27:23;;;;;;;5.28;2.90;;;16.70;99.90;;;;;;4952165;28;20043;-84
2023/03/17 12:30:07;;;;;;;7.65;3.95;;;16.80;99.90;;;;;;4944393;28;20488;-83
2023/03/17 12:32:52;;;;;;;5.72;3.13;;;17.00;99.90;;;;;;4962291;28;20035;-82
2023/03/17 12:35:30;;;;;;;7.70;3.72;;;17.10;99.90;;;;;;4954820;28;20038;-83
2023/03/17 12:37:59;;;;;;;9.88;4.22;;;16.80;99.90;;;;;;4948917;28;20035;-83
2023/03/17 12:40:46;;;;;;;7.73;3.00;;;16.80;99.90;;;;;;4963743;28;20023;-83
2023/03/17 12:43:37;;;;;;;4.22;2.45;;;16.80;99.90;;;;;;4947505;28;20283;-84
2023/03/17 12:46:13;;;;;;;5.28;2.42;;;16.80;99.90;;;;;;4964858;28;20045;-83
2023/03/17 12:49:25;;;;;;;7.63;3.95;;;16.80;99.90;;;;;;4969128;28;20400;-85
2023/03/17 12:52:01;;;;;;;5.38;2.13;;;17.00;99.90;;;;;;4956333;28;20407;-84
2023/03/17 12:54:31;;;;;;;5.70;3.20;;;17.10;99.90;;;;;;4964666;28;20039;-84
2023/03/17 12:57:05;;;;;;;4.97;2.60;;;17.30;99.90;;;;;;4946830;28;20507;-84
2023/03/17 12:59:32;;;;;;;7.72;3.42;;;17.20;99.90;;;;;;4963930;28;20038;-83
2023/03/17 13:02:24;;;;;;;5.65;2.88;;;17.20;99.90;;;;;;4966172;28;20202;-84
2023/03/17 13:04:59;;;;;;;7.70;2.58;;;17.10;99.90;;;;;;4965331;28;20065;-84
2023/03/17 13:07:54;;;;;;;6.60;2.88;;;17.20;99.90;;;;;;4970987;28;20035;-84
2023/03/17 13:10:49;;;;;;;5.10;2.65;;;17.00;99.90;;;;;;4963298;28;20030;-86
2023/03/17 13:13:35;;;;;;;5.05;3.00;;;17.10;99.90;;;;;;4955208;28;20038;-86
2023/03/17 13:16:23;;;;;;;9.98;3.17;;;17.10;99.90;;;;;;4967822;28;20050;-89
2023/03/17 13:18:50;;;;;;;5.32;2.28;;;17.20;99.90;;;;;;4967538;28;20046;-88
2023/03/17 13:21:19;;;;;;;6.32;3.25;;;17.00;99.90;;;;;;4969137;28;20066;-90
2023/03/17 13:23:55;;;;;;;6.20;3.45;;;16.90;99.90;;;;;;4950484;28;20404;-87